Time;durP1;ratioP1;P1;durP2;ratioP2;P2;SDS_P1;SDS_P2;PMS_P1;PMS_P2;Temp;Humidity;BMP_temperature;BMP_pressure;BME280_temperature;BME280_humidity;BME280_pressure;Samples;Min_cycle;Max_cycle;Signal;HPM_P1;HPM_P2
2022/03/02 00:00:45;;;;;;;62.78;29.13;;;;;;;;;;5074811;28;20035;-59
2022/03/02 00:03:10;;;;;;;71.03;32.22;;;;;;;;;;5073265;28;20067;-59
2022/03/02 00:05:36;;;;;;;84.70;34.70;;;;;;;;;;5074841;28;20020;-60
2022/03/02 00:08:03;;;;;;;76.22;32.95;;;;;;;;;;5074727;28;20449;-59
2022/03/02 00:10:29;;;;;;;65.32;28.23;;;;;;;;;;5074873;28;20024;-59
2022/03/02 00:12:54;;;;;;;66.32;30.30;;;;;;;;;;5072465;28;20032;-64
2022/03/02 00:15:20;;;;;;;69.43;30.73;;;;;;;;;;5074674;28;20070;-65
2022/03/02 00:17:45;;;;;;;60.70;26.50;;;;;;;;;;5073391;28;20489;-60
2022/03/02 00:20:12;;;;;;;49.33;24.92;;;;;;;;;;5074001;28;20499;-59
2022/03/02 00:22:39;;;;;;;72.72;30.00;;;;;;;;;;5074423;28;20435;-60
2022/03/02 00:25:05;;;;;;;105.63;40.55;;;;;;;;;;5074174;28;20074;-60
2022/03/02 00:27:31;;;;;;;92.18;38.17;;;;;;;;;;5074359;28;20379;-60
2022/03/02 00:29:56;;;;;;;77.05;32.65;;;;;;;;;;5074084;28;20016;-60
2022/03/02 00:32:22;;;;;;;54.53;26.08;;;;;;;;;;5074188;28;20101;-60
2022/03/02 00:34:47;;;;;;;52.38;24.02;;;;;;;;;;5074354;28;20036;-59
2022/03/02 00:37:14;;;;;;;123.05;42.95;;;;;;;;;;5074376;28;20546;-60
2022/03/02 00:39:40;;;;;;;69.28;27.75;;;;;;;;;;5074261;28;20464;-59
2022/03/02 00:42:06;;;;;;;58.95;24.70;;;;;;;;;;5073879;28;20044;-59
2022/03/02 00:44:32;;;;;;;53.85;23.13;;;;;;;;;;5073975;28;20031;-60
2022/03/02 00:46:58;;;;;;;46.38;21.92;;;;;;;;;;5073927;28;20020;-59
2022/03/02 00:49:26;;;;;;;47.55;21.83;;;;;;;;;;5073539;28;20036;-59
2022/03/02 00:51:53;;;;;;;54.03;22.20;;;;;;;;;;5073918;28;20037;-59
2022/03/02 00:54:19;;;;;;;62.63;25.65;;;;;;;;;;5073812;28;20025;-59
2022/03/02 00:56:44;;;;;;;57.60;25.60;;;;;;;;;;5073818;28;20078;-60
2022/03/02 00:59:10;;;;;;;52.13;24.17;;;;;;;;;;5073752;28;20024;-59
2022/03/02 01:01:35;;;;;;;47.00;23.88;;;;;;;;;;5073948;28;20114;-60
2022/03/02 01:04:01;;;;;;;34.83;18.52;;;;;;;;;;5073787;28;20326;-60
2022/03/02 01:06:26;;;;;;;34.33;18.35;;;;;;;;;;5072334;28;20048;-60
2022/03/02 01:08:52;;;;;;;37.63;18.98;;;;;;;;;;5055639;28;20025;-60
2022/03/02 01:11:17;;;;;;;35.65;19.45;;;;;;;;;;5073632;28;20039;-60
2022/03/02 01:13:43;;;;;;;52.35;24.75;;;;;;;;;;5073327;28;20381;-60
2022/03/02 01:16:08;;;;;;;49.17;24.58;;;;;;;;;;5073764;28;20106;-60
2022/03/02 01:18:37;;;;;;;47.53;22.80;;;;;;;;;;5073755;28;20107;-60
2022/03/02 01:21:03;;;;;;;54.80;25.52;;;;;;;;;;5073495;28;20127;-60
2022/03/02 01:23:28;;;;;;;56.40;27.92;;;;;;;;;;5073217;28;20074;-60
2022/03/02 01:25:54;;;;;;;71.10;31.88;;;;;;;;;;5073411;28;20115;-59
2022/03/02 01:28:19;;;;;;;75.30;34.67;;;;;;;;;;5073415;28;20020;-60
2022/03/02 01:30:44;;;;;;;72.80;33.30;;;;;;;;;;5073013;28;20031;-60
2022/03/02 01:33:10;;;;;;;60.35;28.58;;;;;;;;;;5072070;28;20031;-60
2022/03/02 01:35:35;;;;;;;61.50;30.33;;;;;;;;;;5073436;28;20504;-60
2022/03/02 01:38:01;;;;;;;53.22;28.02;;;;;;;;;;5073624;28;20020;-59
2022/03/02 01:40:26;;;;;;;55.30;28.83;;;;;;;;;;5073512;28;20032;-59
2022/03/02 01:42:52;;;;;;;56.72;29.65;;;;;;;;;;5073313;28;20081;-64
2022/03/02 01:45:17;;;;;;;66.88;31.73;;;;;;;;;;5073288;28;20021;-64
2022/03/02 01:47:43;;;;;;;68.80;30.90;;;;;;;;;;5073345;28;20028;-64
2022/03/02 01:50:10;;;;;;;54.30;28.40;;;;;;;;;;5072904;28;20044;-64
2022/03/02 01:52:35;;;;;;;54.83;27.98;;;;;;;;;;5073213;28;20490;-64
2022/03/02 01:55:01;;;;;;;58.05;31.00;;;;;;;;;;5073007;28;20123;-64
2022/03/02 01:57:27;;;;;;;57.05;29.58;;;;;;;;;;5073114;28;20106;-64
2022/03/02 01:59:52;;;;;;;55.35;28.58;;;;;;;;;;5073180;28;20067;-65
2022/03/02 02:02:18;;;;;;;53.90;28.85;;;;;;;;;;5073234;28;20089;-65
2022/03/02 02:04:43;;;;;;;65.43;30.23;;;;;;;;;;5073143;28;20032;-60
2022/03/02 02:07:09;;;;;;;61.00;30.58;;;;;;;;;;5072354;28;20020;-60
2022/03/02 02:09:34;;;;;;;64.63;30.92;;;;;;;;;;5072826;28;20460;-59
2022/03/02 02:12:00;;;;;;;62.75;30.20;;;;;;;;;;5072752;28;20009;-60
2022/03/02 02:14:26;;;;;;;62.88;30.08;;;;;;;;;;5072961;28;20021;-59
2022/03/02 02:16:51;;;;;;;64.00;31.30;;;;;;;;;;5072976;28;20368;-59
2022/03/02 02:19:17;;;;;;;63.85;31.73;;;;;;;;;;5073326;28;20111;-59
2022/03/02 02:21:42;;;;;;;69.45;30.77;;;;;;;;;;5072944;28;20050;-59
2022/03/02 02:24:09;;;;;;;64.30;31.55;;;;;;;;;;5072897;28;20119;-59
2022/03/02 02:26:34;;;;;;;71.18;33.97;;;;;;;;;;5071991;28;20025;-59
2022/03/02 02:29:00;;;;;;;68.95;32.47;;;;;;;;;;5072552;28;20029;-59
2022/03/02 02:31:25;;;;;;;65.75;32.35;;;;;;;;;;5071553;28;20035;-60
2022/03/02 02:33:51;;;;;;;69.95;32.97;;;;;;;;;;5072685;28;20113;-59
2022/03/02 02:36:18;;;;;;;57.58;29.67;;;;;;;;;;5074610;28;20484;-59
2022/03/02 02:38:44;;;;;;;53.35;28.20;;;;;;;;;;5076271;28;20028;-59
2022/03/02 02:41:09;;;;;;;50.75;26.55;;;;;;;;;;5076680;28;20333;-59
2022/03/02 02:43:35;;;;;;;52.70;27.63;;;;;;;;;;5076091;28;20065;-59
2022/03/02 02:46:00;;;;;;;56.97;28.42;;;;;;;;;;5074993;28;20028;-60
2022/03/02 02:48:25;;;;;;;54.58;27.38;;;;;;;;;;5076222;28;20511;-59
2022/03/02 02:50:51;;;;;;;47.47;24.42;;;;;;;;;;5075977;28;20041;-59
2022/03/02 02:53:17;;;;;;;47.72;24.48;;;;;;;;;;5075874;28;20116;-59
2022/03/02 02:55:43;;;;;;;52.13;24.80;;;;;;;;;;5075965;28;20541;-59
2022/03/02 02:58:09;;;;;;;52.47;24.73;;;;;;;;;;5076010;28;20029;-59
2022/03/02 03:00:36;;;;;;;52.20;26.60;;;;;;;;;;5075562;28;20078;-59
2022/03/02 03:03:02;;;;;;;53.17;27.08;;;;;;;;;;5074655;28;20419;-59
2022/03/02 03:05:29;;;;;;;60.53;29.15;;;;;;;;;;5074585;28;20020;-59
2022/03/02 03:07:55;;;;;;;59.25;28.38;;;;;;;;;;5076087;28;20028;-59
2022/03/02 03:10:23;;;;;;;52.78;27.77;;;;;;;;;;5075952;28;20103;-59
2022/03/02 03:12:49;;;;;;;54.63;27.15;;;;;;;;;;5075984;28;20086;-59
2022/03/02 03:15:15;;;;;;;51.38;26.58;;;;;;;;;;5075826;28;20108;-60
2022/03/02 03:17:41;;;;;;;57.38;27.75;;;;;;;;;;5075466;28;20024;-59
2022/03/02 03:20:09;;;;;;;53.75;27.20;;;;;;;;;;5075576;28;20017;-59
2022/03/02 03:22:35;;;;;;;56.28;28.50;;;;;;;;;;5075533;28;20103;-59
2022/03/02 03:25:00;;;;;;;59.70;29.67;;;;;;;;;;5075394;28;20017;-59
2022/03/02 03:27:26;;;;;;;55.40;27.27;;;;;;;;;;5075301;28;20021;-59
2022/03/02 03:29:52;;;;;;;51.75;26.80;;;;;;;;;;5075139;28;20013;-59
2022/03/02 03:32:17;;;;;;;52.30;26.45;;;;;;;;;;5075302;28;20068;-59
2022/03/02 03:34:43;;;;;;;54.47;26.80;;;;;;;;;;5075388;28;20035;-59
2022/03/02 03:37:08;;;;;;;47.70;24.67;;;;;;;;;;5075398;28;20032;-59
2022/03/02 03:39:34;;;;;;;54.30;25.58;;;;;;;;;;5075403;28;20035;-64
2022/03/02 03:41:59;;;;;;;56.90;25.45;;;;;;;;;;5073696;28;20036;-65
2022/03/02 03:44:25;;;;;;;54.83;26.83;;;;;;;;;;5074933;28;20070;-65
2022/03/02 03:46:51;;;;;;;52.80;25.50;;;;;;;;;;5074987;28;20482;-65
2022/03/02 03:49:16;;;;;;;51.55;25.00;;;;;;;;;;5074580;28;20128;-65
2022/03/02 03:51:42;;;;;;;49.30;24.38;;;;;;;;;;5075075;28;20037;-65
2022/03/02 03:54:08;;;;;;;50.78;24.45;;;;;;;;;;5073539;28;20064;-65
2022/03/02 03:56:34;;;;;;;49.17;25.00;;;;;;;;;;5075148;28;20043;-65
2022/03/02 03:58:59;;;;;;;50.20;24.90;;;;;;;;;;5075042;28;20025;-65
2022/03/02 04:01:26;;;;;;;50.53;25.35;;;;;;;;;;5068922;28;20392;-65
2022/03/02 04:03:51;;;;;;;49.13;25.77;;;;;;;;;;5062286;28;20012;-65
2022/03/02 04:06:17;;;;;;;47.15;25.02;;;;;;;;;;5064175;28;20464;-64
2022/03/02 04:08:43;;;;;;;47.88;24.42;;;;;;;;;;5065022;28;20021;-64
2022/03/02 04:11:09;;;;;;;47.83;23.38;;;;;;;;;;5063410;28;20100;-64
2022/03/02 04:13:34;;;;;;;52.83;25.17;;;;;;;;;;5064543;28;20103;-59
2022/03/02 04:16:00;;;;;;;53.15;25.15;;;;;;;;;;5062434;28;20116;-59
2022/03/02 04:18:25;;;;;;;50.00;24.10;;;;;;;;;;5062699;28;20448;-60
2022/03/02 04:20:52;;;;;;;42.40;21.70;;;;;;;;;;5065010;28;20372;-59
2022/03/02 04:23:18;;;;;;;40.72;21.75;;;;;;;;;;5066809;28;20095;-59
2022/03/02 04:25:44;;;;;;;42.03;22.58;;;;;;;;;;5063274;28;20070;-59
2022/03/02 04:28:10;;;;;;;43.55;23.40;;;;;;;;;;5062784;28;20155;-59
2022/03/02 04:30:36;;;;;;;47.47;23.50;;;;;;;;;;5064193;28;20075;-64
2022/03/02 04:33:03;;;;;;;45.53;23.05;;;;;;;;;;5059384;28;20036;-59
2022/03/02 04:35:28;;;;;;;44.35;23.05;;;;;;;;;;5061898;28;20551;-59
2022/03/02 04:37:54;;;;;;;48.35;24.40;;;;;;;;;;5063014;28;20100;-59
2022/03/02 04:40:19;;;;;;;48.05;23.80;;;;;;;;;;5065550;28;20416;-59
2022/03/02 04:42:45;;;;;;;49.55;23.65;;;;;;;;;;5062921;28;20066;-59
2022/03/02 04:45:11;;;;;;;51.30;23.85;;;;;;;;;;5064793;28;20028;-59
2022/03/02 04:47:36;;;;;;;46.67;23.17;;;;;;;;;;5061706;28;20399;-59
2022/03/02 04:50:03;;;;;;;47.58;24.00;;;;;;;;;;5066357;28;20509;-59
2022/03/02 04:52:28;;;;;;;42.45;23.27;;;;;;;;;;5062477;28;20064;-59
2022/03/02 04:55:07;;;;;;;38.80;22.08;;;;;;;;;;5064022;28;20488;-59
2022/03/02 04:57:37;;;;;;;45.95;22.45;;;;;;;;;;5059866;28;20035;-59
2022/03/02 05:00:07;;;;;;;39.47;23.40;;;;;;;;;;5061519;28;20116;-59
2022/03/02 05:02:33;;;;;;;49.55;25.88;;;;;;;;;;5061380;28;20037;-59
2022/03/02 05:04:58;;;;;;;46.22;24.80;;;;;;;;;;5053652;28;20032;-59
2022/03/02 05:07:24;;;;;;;48.35;26.15;;;;;;;;;;5053744;28;20029;-59
2022/03/02 05:09:49;;;;;;;43.20;25.33;;;;;;;;;;5059315;28;20438;-59
2022/03/02 05:12:15;;;;;;;45.45;26.17;;;;;;;;;;5063574;28;20115;-59
2022/03/02 05:14:40;;;;;;;46.72;26.50;;;;;;;;;;5067846;28;20027;-57
2022/03/02 05:17:06;;;;;;;44.53;25.92;;;;;;;;;;5063886;28;20020;-59
2022/03/02 05:19:33;;;;;;;45.00;24.77;;;;;;;;;;5058031;28;20025;-59
2022/03/02 05:21:58;;;;;;;42.22;24.55;;;;;;;;;;5052444;28;20099;-60
2022/03/02 05:24:24;;;;;;;41.22;24.35;;;;;;;;;;5053381;28;20461;-60
2022/03/02 05:26:50;;;;;;;41.60;23.98;;;;;;;;;;5053459;28;20060;-60
2022/03/02 05:29:16;;;;;;;45.03;24.98;;;;;;;;;;5053013;28;20028;-60
2022/03/02 05:31:41;;;;;;;40.88;22.55;;;;;;;;;;5053034;28;20029;-60
2022/03/02 05:34:07;;;;;;;38.95;22.73;;;;;;;;;;5053018;28;20024;-60
2022/03/02 05:36:32;;;;;;;45.42;24.98;;;;;;;;;;5052909;28;20483;-60
2022/03/02 05:38:58;;;;;;;42.03;23.70;;;;;;;;;;5052935;28;20427;-59
2022/03/02 05:41:23;;;;;;;40.60;23.42;;;;;;;;;;5052938;28;20035;-60
2022/03/02 05:43:49;;;;;;;36.95;21.77;;;;;;;;;;5052379;28;20021;-60
2022/03/02 05:46:15;;;;;;;39.60;21.92;;;;;;;;;;5052110;28;20063;-60
2022/03/02 05:48:40;;;;;;;43.55;23.50;;;;;;;;;;5052488;28;20092;-60
2022/03/02 05:51:06;;;;;;;63.45;28.75;;;;;;;;;;5053262;28;20369;-60
2022/03/02 05:53:31;;;;;;;77.10;35.72;;;;;;;;;;5053240;28;20388;-59
2022/03/02 05:55:57;;;;;;;56.58;27.75;;;;;;;;;;5053323;28;20106;-59
2022/03/02 05:58:22;;;;;;;46.42;23.75;;;;;;;;;;5051939;28;20473;-59
2022/03/02 06:00:48;;;;;;;52.22;25.27;;;;;;;;;;5052832;28;20025;-59
2022/03/02 06:03:14;;;;;;;49.47;27.00;;;;;;;;;;5053288;28;20103;-59
2022/03/02 06:05:39;;;;;;;50.08;26.30;;;;;;;;;;5052969;28;20140;-59
2022/03/02 06:08:07;;;;;;;45.10;25.50;;;;;;;;;;5052783;28;20017;-60
2022/03/02 06:10:33;;;;;;;42.15;24.15;;;;;;;;;;5053541;28;20371;-60
2022/03/02 06:12:59;;;;;;;46.38;24.90;;;;;;;;;;5056513;28;20029;-60
2022/03/02 06:15:24;;;;;;;44.75;25.00;;;;;;;;;;5056235;28;20120;-60
2022/03/02 06:17:50;;;;;;;46.60;26.17;;;;;;;;;;5056589;28;20025;-60
2022/03/02 06:20:16;;;;;;;54.55;26.80;;;;;;;;;;5056403;28;20477;-60
2022/03/02 06:22:44;;;;;;;54.58;28.25;;;;;;;;;;5056359;28;20057;-60
2022/03/02 06:25:13;;;;;;;48.65;26.73;;;;;;;;;;5056325;28;20029;-60
2022/03/02 06:27:39;;;;;;;55.22;29.38;;;;;;;;;;5056222;28;20103;-60
2022/03/02 06:30:05;;;;;;;54.95;27.83;;;;;;;;;;5056118;28;20052;-59
2022/03/02 06:32:31;;;;;;;54.72;28.63;;;;;;;;;;5056109;28;20091;-60
2022/03/02 06:34:58;;;;;;;57.88;31.70;;;;;;;;;;5056325;28;20454;-60
2022/03/02 06:37:23;;;;;;;62.72;34.30;;;;;;;;;;5056415;28;20383;-60
2022/03/02 06:39:49;;;;;;;65.65;35.28;;;;;;;;;;5055704;28;20116;-60
2022/03/02 06:42:14;;;;;;;69.32;34.97;;;;;;;;;;5055990;28;20537;-59
2022/03/02 06:44:52;;;;;;;65.50;33.95;;;;;;;;;;5055918;28;20033;-60
2022/03/02 06:47:18;;;;;;;63.72;33.95;;;;;;;;;;5055922;28;20021;-60
2022/03/02 06:50:04;;;;;;;60.45;33.55;;;;;;;;;;5054219;28;20054;-59
2022/03/02 06:52:37;;;;;;;60.47;31.80;;;;;;;;;;5055777;28;20534;-60
2022/03/02 06:55:06;;;;;;;67.68;34.85;;;;;;;;;;5055824;28;20124;-60
2022/03/02 06:57:32;;;;;;;159.95;70.63;;;;;;;;;;5055653;28;20421;-60
2022/03/02 07:00:14;;;;;;;195.18;83.47;;;;;;;;;;5055683;28;20059;-59
2022/03/02 07:02:44;;;;;;;206.48;83.68;;;;;;;;;;5054438;28;20025;-59
2022/03/02 07:05:09;;;;;;;234.97;97.50;;;;;;;;;;5055662;28;20017;-60
2022/03/02 07:07:35;;;;;;;168.85;78.95;;;;;;;;;;5055435;28;20431;-59
2022/03/02 07:10:00;;;;;;;101.15;50.97;;;;;;;;;;5055400;28;20078;-59
2022/03/02 07:12:27;;;;;;;87.13;43.80;;;;;;;;;;5055412;28;20032;-60
2022/03/02 07:14:52;;;;;;;78.55;39.10;;;;;;;;;;5055231;28;20053;-61
2022/03/02 07:17:18;;;;;;;77.28;40.38;;;;;;;;;;5055278;28;20036;-60
2022/03/02 07:19:43;;;;;;;73.25;37.85;;;;;;;;;;5055318;28;20025;-60
2022/03/02 07:22:11;;;;;;;89.00;44.22;;;;;;;;;;5054614;28;20036;-60
2022/03/02 07:24:41;;;;;;;83.68;39.83;;;;;;;;;;5055182;28;20009;-60
2022/03/02 07:27:06;;;;;;;91.97;38.17;;;;;;;;;;5054008;28;20036;-60
2022/03/02 07:29:34;;;;;;;69.57;34.53;;;;;;;;;;5054964;28;20021;-60
2022/03/02 07:31:59;;;;;;;125.93;56.60;;;;;;;;;;5055003;28;20465;-60
2022/03/02 07:34:26;;;;;;;226.15;101.18;;;;;;;;;;5055330;28;20032;-60
2022/03/02 07:36:51;;;;;;;183.57;83.25;;;;;;;;;;5054986;28;20025;-60
2022/03/02 07:39:17;;;;;;;144.85;65.88;;;;;;;;;;5054867;28;20021;-60
2022/03/02 07:41:42;;;;;;;95.65;45.72;;;;;;;;;;5054844;28;20112;-60
2022/03/02 07:44:08;;;;;;;17.25;10.55;;;;;;;;;;5054728;28;20393;-60
2022/03/02 07:46:33;;;;;;;45.47;20.70;;;;;;;;;;5053703;28;20481;-60
2022/03/02 07:48:59;;;;;;;24.58;13.43;;;;;;;;;;5053582;28;20492;-60
2022/03/02 07:51:26;;;;;;;22.48;14.20;;;;;;;;;;5054593;28;20025;-59
2022/03/02 07:53:55;;;;;;;16.70;11.68;;;;;;;;;;5054302;28;20040;-60
2022/03/02 07:56:21;;;;;;;15.85;10.43;;;;;;;;;;5054387;28;20029;-60
2022/03/02 07:58:46;;;;;;;14.45;9.95;;;;;;;;;;5054286;28;20019;-60
2022/03/02 08:01:13;;;;;;;16.27;10.85;;;;;;;;;;5054371;28;20033;-60
2022/03/02 08:03:39;;;;;;;15.18;10.50;;;;;;;;;;5054449;28;20025;-60
2022/03/02 08:06:05;;;;;;;17.85;13.65;;;;;;;;;;5054382;28;20037;-60
2022/03/02 08:08:30;;;;;;;12.82;9.73;;;;;;;;;;5054451;28;20468;-60
2022/03/02 08:10:56;;;;;;;11.45;8.82;;;;;;;;;;5054490;28;20071;-60
2022/03/02 08:13:23;;;;;;;12.13;9.70;;;;;;;;;;5054378;28;20020;-60
2022/03/02 08:15:49;;;;;;;11.35;8.13;;;;;;;;;;5054317;28;20040;-60
2022/03/02 08:18:14;;;;;;;13.35;9.63;;;;;;;;;;5054251;28;20021;-60
2022/03/02 08:20:44;;;;;;;10.55;9.13;;;;;;;;;;5054179;28;20037;-60
2022/03/02 08:23:10;;;;;;;16.50;9.93;;;;;;;;;;5054066;28;20408;-60
2022/03/02 08:25:36;;;;;;;14.60;10.77;;;;;;;;;;5053987;28;20017;-60
2022/03/02 08:28:03;;;;;;;15.10;10.30;;;;;;;;;;5053406;28;20139;-60
2022/03/02 08:30:32;;;;;;;15.80;10.23;;;;;;;;;;5053811;28;20025;-60
2022/03/02 08:33:00;;;;;;;15.60;11.50;;;;;;;;;;5053408;28;20119;-60
2022/03/02 08:35:25;;;;;;;12.05;8.02;;;;;;;;;;5053739;28;20029;-60
2022/03/02 08:37:51;;;;;;;11.90;8.15;;;;;;;;;;5053859;28;20031;-60
2022/03/02 08:40:16;;;;;;;19.52;13.80;;;;;;;;;;5053780;28;20575;-60
2022/03/02 08:42:44;;;;;;;12.20;8.70;;;;;;;;;;5053707;28;20499;-60
2022/03/02 08:45:09;;;;;;;10.32;7.32;;;;;;;;;;5053549;28;20017;-60
2022/03/02 08:47:35;;;;;;;7.57;6.38;;;;;;;;;;5053557;28;20051;-60
2022/03/02 08:50:00;;;;;;;8.95;6.95;;;;;;;;;;5053366;28;20037;-60
2022/03/02 08:52:27;;;;;;;13.75;12.07;;;;;;;;;;5053779;28;20033;-60
2022/03/02 08:54:53;;;;;;;7.55;6.82;;;;;;;;;;5053494;28;20503;-60
2022/03/02 08:57:18;;;;;;;8.88;7.45;;;;;;;;;;5053585;28;20060;-60
2022/03/02 08:59:44;;;;;;;9.43;7.85;;;;;;;;;;5053391;28;20025;-60
2022/03/02 09:02:10;;;;;;;8.95;6.43;;;;;;;;;;5053425;28;20028;-60
2022/03/02 09:04:36;;;;;;;10.98;8.80;;;;;;;;;;5053278;28;20009;-60
2022/03/02 09:07:03;;;;;;;12.15;9.20;;;;;;;;;;5053229;28;20140;-60
2022/03/02 09:09:29;;;;;;;17.08;7.80;;;;;;;;;;5053231;28;20013;-60
2022/03/02 09:11:55;;;;;;;8.30;7.43;;;;;;;;;;5053365;28;20032;-60
2022/03/02 09:14:22;;;;;;;11.85;7.53;;;;;;;;;;5053258;28;20021;-60
2022/03/02 09:16:47;;;;;;;27.38;18.08;;;;;;;;;;5053360;28;20402;-60
2022/03/02 09:19:13;;;;;;;11.38;10.05;;;;;;;;;;5053077;28;20027;-60
2022/03/02 09:21:38;;;;;;;32.08;24.95;;;;;;;;;;5053088;28;20116;-60
2022/03/02 09:24:05;;;;;;;11.45;7.45;;;;;;;;;;5052740;28;20013;-60
2022/03/02 09:26:30;;;;;;;21.90;16.85;;;;;;;;;;5053130;28;20040;-60
2022/03/02 09:28:56;;;;;;;25.70;19.30;;;;;;;;;;5052894;28;20025;-60
2022/03/02 09:31:22;;;;;;;14.48;10.80;;;;;;;;;;5052988;28;20024;-60
2022/03/02 09:33:49;;;;;;;23.70;15.65;;;;;;;;;;5053041;28;20111;-60
2022/03/02 09:36:18;;;;;;;9.45;6.78;;;;;;;;;;5052950;28;20025;-60
2022/03/02 09:38:47;;;;;;;12.95;8.98;;;;;;;;;;5051851;28;20028;-60
2022/03/02 09:41:15;;;;;;;11.55;7.85;;;;;;;;;;5052966;28;20477;-60
2022/03/02 09:43:42;;;;;;;8.00;5.88;;;;;;;;;;5052862;28;20029;-60
2022/03/02 09:46:10;;;;;;;13.90;9.85;;;;;;;;;;5058534;28;20028;-60
2022/03/02 09:48:40;;;;;;;8.00;6.22;;;;;;;;;;5059158;28;20468;-60
2022/03/02 09:51:06;;;;;;;;;;;;;;;;;;5059775;28;20125;-60
2022/03/02 09:53:32;;;;;;;9.52;5.85;;;;;;;;;;5059698;28;19991;-60
2022/03/02 09:56:01;;;;;;;9.13;7.65;;;;;;;;;;5059544;28;20484;-60
2022/03/02 09:58:27;;;;;;;10.48;7.72;;;;;;;;;;5059470;28;20109;-60
2022/03/02 10:00:57;;;;;;;13.15;8.25;;;;;;;;;;5059535;28;20484;-60
2022/03/02 10:03:24;;;;;;;13.82;8.90;;;;;;;;;;5059317;28;20423;-60
2022/03/02 10:05:50;;;;;;;11.13;8.98;;;;;;;;;;5059311;28;20025;-60
2022/03/02 10:08:18;;;;;;;12.27;5.70;;;;;;;;;;5059412;28;20484;-60
2022/03/02 10:10:46;;;;;;;8.05;5.78;;;;;;;;;;5059427;28;20112;-60
2022/03/02 10:13:12;;;;;;;10.75;7.38;;;;;;;;;;5059387;28;20024;-60
2022/03/02 10:15:38;;;;;;;15.15;10.00;;;;;;;;;;5059275;28;20530;-60
2022/03/02 10:18:06;;;;;;;12.38;8.48;;;;;;;;;;5059032;28;20497;-60
2022/03/02 10:20:33;;;;;;;13.68;9.75;;;;;;;;;;5059364;28;20036;-60
2022/03/02 10:23:02;;;;;;;17.50;10.95;;;;;;;;;;5059193;28;20041;-60
2022/03/02 10:25:36;;;;;;;27.08;17.52;;;;;;;;;;5059222;28;20441;-60
2022/03/02 10:28:05;;;;;;;17.15;11.20;;;;;;;;;;5059364;28;20025;-60
2022/03/02 10:30:38;;;;;;;8.32;6.93;;;;;;;;;;5059002;28;20040;-60
2022/03/02 10:33:16;;;;;;;10.40;7.22;;;;;;;;;;5059008;28;20640;-60
2022/03/02 10:35:47;;;;;;;25.13;17.20;;;;;;;;;;5059260;28;20033;-60
2022/03/02 10:38:15;;;;;;;11.48;8.10;;;;;;;;;;5057803;28;20032;-60
2022/03/02 10:40:41;;;;;;;15.40;7.90;;;;;;;;;;5059003;28;20473;-60
2022/03/02 10:43:09;;;;;;;317.00;172.00;;;;;;;;;;5057561;28;20028;-60
2022/03/02 10:45:35;;;;;;;17.95;10.77;;;;;;;;;;5058885;28;20028;-60
2022/03/02 10:48:16;;;;;;;140.77;53.15;;;;;;;;;;5057595;28;20033;-60
2022/03/02 10:50:43;;;;;;;472.95;216.90;;;;;;;;;;5058744;28;20556;-60
2022/03/02 10:53:13;;;;;;;10.15;8.43;;;;;;;;;;5058796;28;20032;-60
2022/03/02 10:55:41;;;;;;;646.75;288.40;;;;;;;;;;5058746;28;20036;-60
2022/03/02 10:58:06;;;;;;;373.50;135.23;;;;;;;;;;5054952;28;20028;-60
2022/03/02 11:00:32;;;;;;;203.57;71.13;;;;;;;;;;5055684;28;20463;-60
2022/03/02 11:02:59;;;;;;;26.65;14.70;;;;;;;;;;5055544;28;20025;-60
2022/03/02 11:05:26;;;;;;;543.28;210.98;;;;;;;;;;5055563;28;20477;-60
2022/03/02 11:07:52;;;;;;;37.42;18.35;;;;;;;;;;5055646;28;20021;-60
2022/03/02 11:10:19;;;;;;;53.78;28.23;;;;;;;;;;5054087;28;20029;-60
2022/03/02 11:12:47;;;;;;;17.60;10.52;;;;;;;;;;5055122;28;20025;-60
2022/03/02 11:15:13;;;;;;;19.33;11.82;;;;;;;;;;5055298;28;20044;-60
2022/03/02 11:17:55;;;;;;;275.48;95.93;;;;;;;;;;5055522;28;20448;-60
2022/03/02 11:20:21;;;;;;;59.60;22.27;;;;;;;;;;5054014;28;20041;-60
2022/03/02 11:22:52;;;;;;;42.45;23.13;;;;;;;;;;5055138;28;20021;-60
2022/03/02 11:25:17;;;;;;;274.83;119.75;;;;;;;;;;5055174;28;20473;-60
2022/03/02 11:27:43;;;;;;;17.80;10.60;;;;;;;;;;5055179;28;20017;-60
2022/03/02 11:30:08;;;;;;;13.73;8.88;;;;;;;;;;5055023;28;20022;-60
2022/03/02 11:32:36;;;;;;;10.63;7.32;;;;;;;;;;5054930;28;20017;-60
2022/03/02 11:35:03;;;;;;;23.73;13.10;;;;;;;;;;5055452;28;20481;-73
2022/03/02 11:37:31;;;;;;;11.68;8.05;;;;;;;;;;5054773;28;20024;-60
2022/03/02 11:39:57;;;;;;;13.10;8.43;;;;;;;;;;5055062;28;20029;-62
2022/03/02 11:42:30;;;;;;;24.95;12.50;;;;;;;;;;5055245;28;20032;-62
2022/03/02 11:44:57;;;;;;;20.45;10.80;;;;;;;;;;5055375;28;20028;-62
2022/03/02 11:47:24;;;;;;;57.63;27.98;;;;;;;;;;5055469;28;20468;-62
2022/03/02 11:49:54;;;;;;;17.48;9.73;;;;;;;;;;5054726;28;20045;-61
2022/03/02 11:52:27;;;;;;;134.40;69.20;;;;;;;;;;5055158;28;20476;-61
2022/03/02 11:55:07;;;;;;;529.58;321.60;;;;;;;;;;5053713;28;20094;-62
2022/03/02 11:57:39;;;;;;;268.70;137.35;;;;;;;;;;5054975;28;20171;-62
2022/03/02 12:00:13;;;;;;;24.67;14.02;;;;;;;;;;5054767;28;20139;-61
2022/03/02 12:02:43;;;;;;;19.67;12.02;;;;;;;;;;5054565;28;20041;-62
2022/03/02 12:05:08;;;;;;;7.95;5.43;;;;;;;;;;5053558;28;20036;-62
2022/03/02 12:07:51;;;;;;;17.08;12.10;;;;;;;;;;5053906;28;20025;-61
2022/03/02 12:10:18;;;;;;;12.55;8.27;;;;;;;;;;5053725;28;20033;-61
2022/03/02 12:12:43;;;;;;;9.63;7.05;;;;;;;;;;5054642;28;20013;-62
2022/03/02 12:15:09;;;;;;;10.80;7.75;;;;;;;;;;5054581;28;20033;-61
2022/03/02 12:17:36;;;;;;;14.40;9.32;;;;;;;;;;5054550;28;20032;-61
2022/03/02 12:20:09;;;;;;;18.42;12.02;;;;;;;;;;5054683;28;20090;-62
2022/03/02 12:22:36;;;;;;;14.88;8.77;;;;;;;;;;5054480;28;20039;-62
2022/03/02 12:25:02;;;;;;;35.15;26.60;;;;;;;;;;5054633;28;20027;-62
2022/03/02 12:27:28;;;;;;;10.90;7.50;;;;;;;;;;5054324;28;20032;-61
2022/03/02 12:29:59;;;;;;;9.68;7.53;;;;;;;;;;5054623;28;20017;-66
2022/03/02 12:32:31;;;;;;;16.15;10.23;;;;;;;;;;5054171;28;20117;-62
2022/03/02 12:34:58;;;;;;;41.75;34.67;;;;;;;;;;5054273;28;20135;-69
2022/03/02 12:37:23;;;;;;;16.27;9.35;;;;;;;;;;5054082;28;20488;-60
2022/03/02 12:39:49;;;;;;;36.38;26.52;;;;;;;;;;5053965;28;20029;-61
2022/03/02 12:42:16;;;;;;;41.00;27.90;;;;;;;;;;5054230;28;20025;-60
2022/03/02 12:44:47;;;;;;;41.80;23.90;;;;;;;;;;5054042;28;20021;-60
2022/03/02 12:47:33;;;;;;;25.52;19.15;;;;;;;;;;5054207;28;20029;-61
2022/03/02 12:50:00;;;;;;;30.08;18.65;;;;;;;;;;5053270;28;20041;-60
2022/03/02 12:52:26;;;;;;;35.65;17.80;;;;;;;;;;5054022;28;20033;-61
2022/03/02 12:54:52;;;;;;;216.05;92.60;;;;;;;;;;5053995;28;20029;-60
2022/03/02 12:57:25;;;;;;;159.93;76.82;;;;;;;;;;5054135;28;20534;-60
2022/03/02 12:59:51;;;;;;;134.40;52.13;;;;;;;;;;5053912;28;20107;-61
2022/03/02 13:02:17;;;;;;;133.88;46.38;;;;;;;;;;5053600;28;20483;-62
2022/03/02 13:05:02;;;;;;;107.43;37.38;;;;;;;;;;5053738;28;20025;-60
2022/03/02 13:07:40;;;;;;;115.70;38.30;;;;;;;;;;5053624;28;20024;-61
2022/03/02 13:10:10;;;;;;;72.00;25.73;;;;;;;;;;5052394;28;20037;-61
2022/03/02 13:12:40;;;;;;;51.47;27.48;;;;;;;;;;5053696;28;20566;-67
2022/03/02 13:15:29;;;;;;;621.85;192.60;;;;;;;;;;5053693;28;20087;-67
2022/03/02 13:18:07;;;;;;;1523.00;523.50;;;;;;;;;;5050619;28;20053;-67
2022/03/02 13:20:33;;;;;;;50.35;23.45;;;;;;;;;;5053426;28;20021;-66
2022/03/02 13:23:17;;;;;;;1097.65;340.95;;;;;;;;;;5053604;28;20017;-66
2022/03/02 13:25:55;;;;;;;543.40;173.32;;;;;;;;;;5053307;28;20384;-66
2022/03/02 13:28:22;;;;;;;93.60;47.78;;;;;;;;;;5053118;28;20086;-66
2022/03/02 13:31:12;;;;;;;191.95;61.63;;;;;;;;;;5052963;28;20017;-66
2022/03/02 13:33:55;;;;;;;646.60;207.27;;;;;;;;;;5049675;28;20045;-65
2022/03/02 13:36:30;;;;;;;1045.20;346.48;;;;;;;;;;5052290;28;20494;-66
2022/03/02 13:39:06;;;;;;;472.42;144.30;;;;;;;;;;5052425;28;20119;-66
2022/03/02 13:41:39;;;;;;;1214.03;452.05;;;;;;;;;;5052573;28;20437;-66
2022/03/02 13:44:23;;;;;;;1011.28;422.10;;;;;;;;;;5052302;28;20021;-66
2022/03/02 13:47:07;;;;;;;48.85;28.85;;;;;;;;;;5051134;28;20025;-67
2022/03/02 13:49:57;;;;;;;1493.80;649.47;;;;;;;;;;5052033;28;20119;-67
2022/03/02 13:52:28;;;;;;;85.07;42.85;;;;;;;;;;5053438;28;20082;-67
2022/03/02 13:54:58;;;;;;;98.38;46.17;;;;;;;;;;5052771;28;20079;-67
2022/03/02 13:57:24;;;;;;;85.38;43.33;;;;;;;;;;5052278;28;20439;-67
2022/03/02 14:00:08;;;;;;;240.40;96.65;;;;;;;;;;5052651;28;20025;-67
2022/03/02 14:02:35;;;;;;;87.03;38.53;;;;;;;;;;5052606;28;21909;-67
2022/03/02 14:05:00;;;;;;;276.75;126.22;;;;;;;;;;5052804;28;20025;-67
2022/03/02 14:07:27;;;;;;;36.22;21.20;;;;;;;;;;5052861;28;20556;-67
2022/03/02 14:10:08;;;;;;;263.88;129.35;;;;;;;;;;5052679;28;20021;-68
2022/03/02 14:12:35;;;;;;;;;;;;;;;;;;5053219;28;20446;-67
2022/03/02 14:15:10;;;;;;;144.73;92.63;;;;;;;;;;5052574;28;19905;-67
2022/03/02 14:17:36;;;;;;;43.08;26.38;;;;;;;;;;5051471;28;20083;-67
2022/03/02 14:20:03;;;;;;;76.18;43.25;;;;;;;;;;5052475;28;20028;-67